Time;durP1;ratioP1;P1;durP2;ratioP2;P2;SDS_P1;SDS_P2;PMS_P1;PMS_P2;Temp;Humidity;BMP_temperature;BMP_pressure;BME280_temperature;BME280_humidity;BME280_pressure;Samples;Min_cycle;Max_cycle;Signal;HPM_P1;HPM_P2
2022/01/06 00:01:03;;;;;;;;;10.25;7.00;;;;;6.82;73.53;101721.44;5075894;27;45498;-72
2022/01/06 00:03:28;;;;;;;;;12.00;7.00;;;;;6.72;73.37;101701.31;5094269;27;49659;-71
2022/01/06 00:05:55;;;;;;;;;8.50;6.00;;;;;6.88;74.14;101725.81;5093390;27;45311;-71
2022/01/06 00:08:21;;;;;;;;;10.75;6.75;;;;;6.89;74.15;101741.59;5094607;27;45535;-71
2022/01/06 00:10:48;;;;;;;;;11.25;7.00;;;;;6.74;73.66;101708.31;5094090;27;45372;-71
2022/01/06 00:13:17;;;;;;;;;9.75;6.00;;;;;6.87;74.44;101724.94;5095638;27;46133;-71
2022/01/06 00:16:00;;;;;;;;;8.00;7.00;;;;;6.92;73.58;101730.19;5102174;27;45471;-72
2022/01/06 00:23:42;;;;;;;;;7.75;7.25;;;;;6.85;72.58;101710.91;5092303;27;45803;-71
2022/01/06 00:26:08;;;;;;;;;6.75;5.50;;;;;6.86;72.77;101711.81;5074289;27;45517;-71
2022/01/06 00:28:35;;;;;;;;;1.00;1.00;;;;;6.80;74.02;101700.41;5094636;27;45396;-72
2022/01/06 00:31:01;;;;;;;;;8.00;7.00;;;;;6.64;74.39;101669.75;5095043;27;45520;-71
2022/01/06 00:33:29;;;;;;;;;6.25;4.00;;;;;6.89;73.24;101719.69;5093347;27;46300;-71
2022/01/06 00:35:55;;;;;;;;;9.00;4.00;;;;;6.80;72.89;101705.66;5093650;27;45627;-71
2022/01/06 00:38:22;;;;;;;;;8.50;5.50;;;;;6.86;73.07;101724.97;5094734;27;45368;-71
2022/01/06 00:40:47;;;;;;;;;8.50;5.25;;;;;6.87;73.28;101724.94;5093867;27;45573;-71
2022/01/06 00:43:13;;;;;;;;;11.00;6.00;;;;;6.71;73.78;101700.44;5095138;27;45440;-72
2022/01/06 00:45:39;;;;;;;;;7.25;5.50;;;;;6.71;73.77;101712.72;5093677;27;45518;-72
2022/01/06 00:48:10;;;;;;;;;7.00;5.00;;;;;6.81;73.94;101743.38;5094102;27;45485;-71
2022/01/06 00:50:37;;;;;;;;;6.75;3.75;;;;;6.78;74.16;101736.38;5093718;27;45548;-72
2022/01/06 00:53:04;;;;;;;;;8.00;6.00;;;;;6.73;73.77;101739.88;5094480;27;45567;-71
2022/01/06 00:55:33;;;;;;;;;9.00;6.75;;;;;6.74;74.24;101747.78;5094604;27;45483;-71
2022/01/06 00:57:59;;;;;;;;;5.75;4.50;;;;;6.69;74.60;101749.53;5093935;27;45529;-71
2022/01/06 01:00:28;;;;;;;;;10.75;5.00;;;;;6.71;73.83;101749.56;5092945;27;45890;-71
2022/01/06 01:02:54;;;;;;;;;7.75;5.50;;;;;6.71;74.02;101758.31;5093671;27;45400;-71
2022/01/06 01:05:19;;;;;;;;;7.25;6.00;;;;;6.57;74.77;101746.94;5093141;27;45568;-71
2022/01/06 01:07:45;;;;;;;;;8.00;7.00;;;;;6.62;74.33;101750.44;5093358;27;45426;-71
2022/01/06 01:10:11;;;;;;;;;6.00;4.00;;;;;6.66;74.21;101761.84;5097528;27;45540;-71
2022/01/06 01:39:31;;;;;;;;;9.50;6.00;;;;;6.23;72.44;101725.94;5073926;28;45803;-71
2022/01/06 01:41:57;;;;;;;;;7.75;6.00;;;;;6.35;74.64;101749.59;5075810;28;46943;-71
2022/01/06 01:44:22;;;;;;;;;7.00;7.00;;;;;6.26;72.78;101744.31;5076220;28;45703;-71
2022/01/06 01:47:02;;;;;;;;;7.25;5.50;;;;;6.24;72.83;101738.22;5075991;28;45403;-71
2022/01/06 01:51:54;;;;;;;;;4.50;4.00;;;;;6.30;72.72;101753.13;5075762;28;45364;-71
2022/01/06 01:54:19;;;;;;;;;7.25;5.00;;;;;6.33;73.05;101766.25;5076074;28;45345;-71
2022/01/06 01:56:45;;;;;;;;;9.75;5.50;;;;;6.30;74.17;101764.50;5075514;28;45572;-71
2022/01/06 01:59:12;;;;;;;;;7.50;6.25;;;;;6.23;73.34;101760.09;5069923;28;46147;-71
2022/01/06 02:01:37;;;;;;;;;7.50;6.75;;;;;6.25;72.62;101768.88;5075911;28;45342;-71
2022/01/06 02:04:03;;;;;;;;;7.75;6.25;;;;;6.13;74.23;101759.22;5077098;28;45415;-71
2022/01/06 02:06:29;;;;;;;;;9.00;7.00;;;;;6.22;73.88;101773.25;5075280;28;45425;-71
2022/01/06 02:08:57;;;;;;;;;7.50;5.50;;;;;6.09;73.08;101754.00;5075611;28;45494;-71
2022/01/06 02:11:22;;;;;;;;;10.00;7.25;;;;;6.21;73.37;101782.03;5073766;28;45312;-71
2022/01/06 02:13:53;;;;;;;;;6.75;6.50;;;;;6.18;73.60;101780.28;5073700;27;45435;-71
2022/01/06 02:16:20;;;;;;;;;20.75;15.75;;;;;6.12;72.67;101772.38;5078089;28;45739;-71
2022/01/06 02:18:47;;;;;;;;;56.25;42.75;;;;;6.06;73.24;101769.72;5073822;28;45317;-71
2022/01/06 02:21:13;;;;;;;;;38.25;31.00;;;;;5.99;73.43;101766.22;5074458;28;45510;-71
2022/01/06 02:23:38;;;;;;;;;34.50;22.50;;;;;6.10;72.79;101784.63;5076283;28;45242;-71
2022/01/06 02:26:04;;;;;;;;;34.00;23.75;;;;;6.00;73.48;101770.63;5074335;28;45475;-71
2022/01/06 02:28:29;;;;;;;;;28.75;16.50;;;;;6.01;74.21;101774.13;5075967;28;45518;-71
2022/01/06 02:30:57;;;;;;;;;59.00;39.75;;;;;6.08;73.46;101782.00;5076113;28;45391;-71
2022/01/06 02:33:23;;;;;;;;;57.00;43.00;;;;;5.82;73.54;101739.88;5065485;28;46096;-71
2022/01/06 02:35:50;;;;;;;;;60.00;43.50;;;;;6.05;74.43;101789.88;5074768;28;45685;-71
2022/01/06 02:38:16;;;;;;;;;61.75;42.50;;;;;6.04;74.60;101803.03;5075077;28;45542;-71
2022/01/06 02:40:42;;;;;;;;;60.25;42.25;;;;;6.02;74.49;101804.78;5074454;28;45520;-71
2022/01/06 02:43:07;;;;;;;;;72.00;43.67;;;;;5.94;74.11;101788.13;5076889;28;45383;-71
2022/01/06 02:45:35;;;;;;;;;67.25;45.00;;;;;5.99;74.89;101795.13;5074904;27;45547;-71
2022/01/06 02:48:08;;;;;;;;;57.67;27.00;;;;;5.79;74.20;101753.03;5074803;28;45458;-71
2022/01/06 02:50:34;;;;;;;;;85.00;51.33;;;;;5.88;74.54;101765.28;5072622;28;45417;-71
2022/01/06 02:52:59;;;;;;;;;33.75;13.50;;;;;5.82;73.74;101763.53;5074896;27;45380;-71
2022/01/06 02:55:25;;;;;;;;;75.67;51.33;;;;;5.89;74.09;101778.44;5075761;28;45450;-71
2022/01/06 02:57:50;;;;;;;;;118.00;73.00;;;;;5.81;73.56;101767.03;5075091;28;46110;-71
2022/01/06 03:00:17;;;;;;;;;81.33;55.00;;;;;5.88;74.30;101784.59;5073956;28;45523;-72
2022/01/06 03:02:44;;;;;;;;;95.67;58.67;;;;;5.87;74.14;101782.81;5074872;28;45367;-71
2022/01/06 03:05:10;;;;;;;;;88.33;53.67;;;;;5.86;74.33;101781.06;5068841;28;45440;-71
2022/01/06 03:07:36;;;;;;;;;88.00;59.00;;;;;5.77;73.18;101767.06;5057049;28;46729;-71
2022/01/06 03:10:06;;;;;;;;;75.00;51.67;;;;;5.84;74.33;101781.94;5075853;28;45705;-71
2022/01/06 03:12:39;;;;;;;;;69.33;49.00;;;;;5.74;75.04;101773.19;5074552;28;45502;-71
2022/01/06 03:15:11;;;;;;;;;89.33;57.00;;;;;5.67;74.71;101769.63;5073988;28;45564;-71
2022/01/06 03:17:38;;;;;;;;;84.67;59.33;;;;;5.76;74.16;101784.53;5073939;28;46474;-71
2022/01/06 03:20:06;;;;;;;;;87.33;61.00;;;;;5.72;74.80;101788.03;5073839;28;45367;-71
2022/01/06 03:22:32;;;;;;;;;74.67;49.00;;;;;5.65;74.45;101781.03;5073508;27;45330;-71
2022/01/06 03:24:57;;;;;;;;;73.67;48.67;;;;;5.54;74.92;101767.00;5075006;28;45497;-71
2022/01/06 03:27:23;;;;;;;;;83.00;58.33;;;;;5.49;75.04;101760.84;5073782;28;47423;-71
2022/01/06 03:29:50;;;;;;;;;82.67;54.00;;;;;5.60;74.24;101788.00;5072462;28;45400;-71
2022/01/06 03:32:19;;;;;;;;;87.00;63.00;;;;;5.64;74.29;101801.16;5073520;28;45613;-71
2022/01/06 03:34:45;;;;;;;;;94.00;61.33;;;;;5.60;74.94;101803.78;5055667;28;45387;-71
2022/01/06 03:37:11;;;;;;;;;84.33;57.00;;;;;5.60;75.35;101801.16;5075490;28;46421;-71
2022/01/06 03:39:36;;;;;;;;;83.67;52.67;;;;;5.58;74.43;101808.13;5073805;28;45827;-71
2022/01/06 03:42:02;;;;;;;;;50.25;35.00;;;;;5.57;74.60;101803.75;5073846;28;45588;-71
2022/01/06 03:44:27;;;;;;;;;49.00;37.00;;;;;5.58;74.32;101809.00;5074276;28;45430;-71
2022/01/06 03:46:53;;;;;;;;;33.50;32.00;;;;;5.49;75.13;101792.34;5073638;28;45416;-71
2022/01/06 03:49:19;;;;;;;;;44.50;34.50;;;;;5.56;75.10;101812.50;5075826;28;45405;-71
2022/01/06 03:51:45;;;;;;;;;52.00;37.00;;;;;5.56;74.79;101823.91;5074296;28;45415;-71
2022/01/06 03:54:10;;;;;;;;;36.50;28.50;;;;;5.56;75.40;101812.50;5073808;28;47634;-71
2022/01/06 03:56:35;;;;;;;;;27.75;26.50;;;;;5.57;74.78;101823.03;5073348;28;45484;-71
2022/01/06 03:59:02;;;;;;;;;33.00;25.25;;;;;5.59;75.08;101828.25;5055237;28;45408;-71
2022/01/06 04:01:27;;;;;;;;;17.25;15.00;;;;;5.60;74.81;101824.78;5074966;28;45542;-71
2022/01/06 04:03:53;;;;;;;;;23.75;18.25;;;;;5.60;74.84;101823.03;5073753;28;45543;-71
2022/01/06 04:06:18;;;;;;;;;12.50;11.75;;;;;5.62;74.98;101821.28;5072772;28;46137;-71
2022/01/06 04:08:44;;;;;;;;;17.75;12.50;;;;;5.43;75.12;101788.81;5071150;28;45361;-71
2022/01/06 04:11:10;;;;;;;;;10.50;6.75;;;;;5.51;74.54;101798.50;5073679;28;45284;-71
2022/01/06 04:13:35;;;;;;;;;8.50;7.00;;;;;5.53;75.83;101800.25;5073972;28;45288;-71
2022/01/06 04:16:02;;;;;;;;;6.25;4.25;;;;;5.58;74.82;101811.63;5074843;28;45968;-71
2022/01/06 04:18:28;;;;;;;;;11.25;6.00;;;;;5.52;75.18;101801.09;5072634;28;45400;-71
2022/01/06 04:20:54;;;;;;;;;9.75;6.00;;;;;5.57;74.70;101809.00;5051402;28;45490;-72
2022/01/06 04:23:19;;;;;;;;;4.00;3.00;;;;;5.57;74.57;101809.88;5064234;28;45430;-71
2022/01/06 04:25:45;;;;;;;;;12.50;2.75;;;;;5.55;74.93;101806.38;5073457;28;46019;-71
2022/01/06 04:28:10;;;;;;;;;6.00;2.25;;;;;5.39;74.76;101781.81;5075260;28;45543;-71
2022/01/06 04:30:36;;;;;;;;;7.00;4.00;;;;;5.56;75.54;101816.03;5072653;28;45403;-71
2022/01/06 04:33:01;;;;;;;;;6.00;3.00;;;;;5.43;74.89;101790.56;5072761;28;45391;-71
2022/01/06 04:35:26;;;;;;;;;9.00;6.25;;;;;5.58;75.73;101821.25;5054733;28;46104;-71
2022/01/06 04:37:52;;;;;;;;;8.00;2.50;;;;;5.52;75.31;101811.59;5072570;28;45571;-71
2022/01/06 04:40:17;;;;;;;;;8.25;3.00;;;;;5.58;74.12;101824.75;5073878;28;45529;-71
2022/01/06 04:42:42;;;;;;;;;3.50;2.00;;;;;5.60;74.95;101819.53;5060314;28;45325;-72
2022/01/06 04:45:08;;;;;;;;;12.75;3.50;;;;;5.60;75.62;101820.41;5071355;28;45317;-71
2022/01/06 04:47:34;;;;;;;;;7.75;3.00;;;;;5.60;75.11;101823.03;5070666;28;45261;-71
2022/01/06 04:49:59;;;;;;;;;9.00;4.25;;;;;5.33;74.16;101776.53;5072352;28;45493;-71
2022/01/06 04:52:24;;;;;;;;;10.00;6.50;;;;;5.53;74.14;101809.84;5075132;28;45322;-71
2022/01/06 04:54:50;;;;;;;;;14.50;9.25;;;;;5.42;74.32;101789.72;5072858;28;45933;-71
2022/01/06 04:57:15;;;;;;;;;12.75;7.00;;;;;5.19;73.51;101752.00;5072822;28;45285;-71
2022/01/06 04:59:40;;;;;;;;;12.25;9.00;;;;;5.42;72.08;101792.34;5073064;28;45996;-71
2022/01/06 05:02:06;;;;;;;;;8.00;6.00;;;;;5.50;73.17;101807.22;5057095;27;45531;-71
2022/01/06 05:04:31;;;;;;;;;11.00;6.50;;;;;5.42;71.86;101794.97;5072799;28;47343;-71
2022/01/06 05:06:57;;;;;;;;;9.00;7.00;;;;;5.52;72.85;101826.50;5073792;28;45577;-71
2022/01/06 05:09:22;;;;;;;;;8.00;5.50;;;;;5.41;73.66;101814.22;5073102;28;45401;-71
2022/01/06 05:11:48;;;;;;;;;10.50;4.25;;;;;5.45;73.28;101826.47;5072737;28;45367;-71
2022/01/06 05:14:13;;;;;;;;;12.50;9.00;;;;;5.26;73.47;101801.00;5071963;28;45569;-71
2022/01/06 05:16:38;;;;;;;;;12.50;5.75;;;;;5.37;73.45;101820.31;5072604;28;45470;-71
2022/01/06 05:19:04;;;;;;;;;9.25;7.00;;;;;5.29;72.55;101818.50;5074752;28;45412;-72
2022/01/06 05:21:31;;;;;;;;;7.75;6.00;;;;;5.40;72.56;101838.69;5072730;28;45777;-71
2022/01/06 05:23:57;;;;;;;;;12.50;6.75;;;;;5.31;74.61;101820.28;5071916;28;45448;-72
2022/01/06 05:26:23;;;;;;;;;11.00;6.50;;;;;5.36;73.73;101839.56;5071190;28;45477;-71
2022/01/06 05:28:48;;;;;;;;;16.75;6.00;;;;;5.30;73.13;101826.41;5072195;28;45486;-71
2022/01/06 05:31:14;;;;;;;;;10.75;5.75;;;;;5.19;72.69;101815.84;5074600;28;45303;-71
2022/01/06 05:33:39;;;;;;;;;8.00;5.00;;;;;5.13;74.49;101815.81;5072060;28;46132;-71
2022/01/06 05:36:05;;;;;;;;;14.00;7.25;;;;;5.34;73.04;101859.66;5071971;28;45560;-71
2022/01/06 05:38:31;;;;;;;;;7.50;6.25;;;;;5.35;74.02;101860.53;5056639;28;45343;-71
2022/01/06 05:40:56;;;;;;;;;17.75;7.00;;;;;5.16;74.07;101826.31;5073049;28;45448;-71
2022/01/06 05:43:22;;;;;;;;;8.50;6.00;;;;;5.14;73.77;101822.81;5073648;28;45574;-71
2022/01/06 05:45:51;;;;;;;;;9.25;7.00;;;;;5.17;73.10;101840.31;5070915;28;45746;-71
2022/01/06 05:48:16;;;;;;;;;7.25;5.50;;;;;5.30;73.45;101868.41;5062451;28;45420;-71
2022/01/06 05:50:42;;;;;;;;;8.25;7.00;;;;;5.01;73.78;101813.13;5071933;28;45779;-71
2022/01/06 05:53:07;;;;;;;;;11.75;8.00;;;;;5.23;73.92;101857.00;5072428;28;45218;-71
2022/01/06 05:55:33;;;;;;;;;14.50;11.75;;;;;5.28;73.47;101869.25;5074378;28;45399;-71
2022/01/06 05:57:58;;;;;;;;;14.00;7.25;;;;;5.20;73.94;101859.56;5076778;28;45711;-71
2022/01/06 06:00:24;;;;;;;;;16.00;12.75;;;;;5.22;74.45;101864.84;5075077;28;45435;-71
2022/01/06 06:02:49;;;;;;;;;15.50;8.00;;;;;5.09;73.96;101850.78;5074984;28;46220;-72
2022/01/06 06:05:14;;;;;;;;;13.75;10.25;;;;;5.16;75.12;101864.81;5055269;28;46230;-71
2022/01/06 06:07:40;;;;;;;;;9.25;9.25;;;;;5.00;75.11;101850.75;5075397;28;45356;-72
2022/01/06 06:10:05;;;;;;;;;19.50;11.00;;;;;5.13;73.74;101870.94;5077422;28;45507;-72
2022/01/06 06:12:31;;;;;;;;;18.75;15.00;;;;;5.10;73.92;101875.28;5074972;28;45595;-72
2022/01/06 06:14:56;;;;;;;;;18.25;15.50;;;;;5.21;74.16;101891.97;5075171;27;45469;-72
2022/01/06 06:17:21;;;;;;;;;21.00;10.00;;;;;5.21;73.54;101900.72;5075189;28;45394;-71
2022/01/06 06:19:47;;;;;;;;;19.00;16.75;;;;;4.96;73.39;101848.94;5075152;28;45680;-72
2022/01/06 06:22:12;;;;;;;;;20.25;14.50;;;;;5.20;73.51;101903.31;5077210;27;46517;-72
2022/01/06 06:24:38;;;;;;;;;21.00;12.00;;;;;5.15;74.14;101891.94;5075135;27;45463;-71
2022/01/06 06:27:05;;;;;;;;;26.75;15.00;;;;;5.11;72.95;101882.28;5067892;28;45455;-72
2022/01/06 06:29:30;;;;;;;;;19.00;11.25;;;;;5.12;73.39;101889.31;5075186;28;45504;-72
2022/01/06 06:31:55;;;;;;;;;15.50;12.25;;;;;5.10;72.71;101893.66;5075230;28;45620;-72
2022/01/06 06:34:21;;;;;;;;;18.25;11.00;;;;;5.18;72.99;101908.56;5076855;28;45601;-71
2022/01/06 06:36:47;;;;;;;;;18.00;12.50;;;;;4.94;72.87;101871.66;5075262;28;45507;-71
2022/01/06 06:39:12;;;;;;;;;20.75;14.75;;;;;4.96;72.79;101875.19;5074380;28;45396;-71
2022/01/06 06:41:38;;;;;;;;;18.75;15.00;;;;;5.02;72.91;101888.34;5056627;28;45950;-71
2022/01/06 06:44:03;;;;;;;;;25.50;17.25;;;;;5.08;74.01;101903.25;5074785;27;45419;-72
2022/01/06 06:46:29;;;;;;;;;16.75;12.50;;;;;4.91;73.15;101877.78;5076012;27;45342;-72
2022/01/06 06:48:54;;;;;;;;;17.00;11.50;;;;;5.09;72.23;101903.28;5075680;28;45357;-72
2022/01/06 06:51:19;;;;;;;;;20.00;10.00;;;;;4.89;72.62;101886.50;5074351;27;46447;-71
2022/01/06 06:53:45;;;;;;;;;19.00;13.25;;;;;4.84;72.62;101870.72;5074567;28;45380;-71
2022/01/06 06:56:10;;;;;;;;;14.75;11.00;;;;;4.89;73.43;101878.63;5075072;27;45448;-72
2022/01/06 06:58:36;;;;;;;;;13.00;8.50;;;;;5.00;72.35;101911.97;5056820;28;45464;-72
2022/01/06 07:01:02;;;;;;;;;16.25;11.25;;;;;4.99;73.72;101907.56;5075954;28;45468;-72
2022/01/06 07:03:27;;;;;;;;;21.75;13.25;;;;;4.99;74.09;101901.44;5071951;27;45454;-72
2022/01/06 07:05:53;;;;;;;;;16.00;11.00;;;;;4.85;74.29;101871.59;5074721;28;45376;-72
2022/01/06 07:08:18;;;;;;;;;18.50;14.00;;;;;4.84;72.92;101883.84;5067814;28;45316;-72
2022/01/06 07:10:43;;;;;;;;;22.25;14.50;;;;;4.94;73.97;101904.03;5075086;27;46008;-72
2022/01/06 07:13:09;;;;;;;;;26.50;21.25;;;;;4.66;73.88;101867.97;5076351;28;45456;-72
2022/01/06 07:15:41;;;;;;;;;29.75;24.50;;;;;4.93;74.32;101910.13;5074267;28;45415;-72
2022/01/06 07:18:06;;;;;;;;;23.25;13.50;;;;;4.69;73.99;101874.09;5074087;28;45581;-72
2022/01/06 07:20:32;;;;;;;;;26.50;24.25;;;;;4.77;73.64;101888.16;5074250;27;47046;-72
2022/01/06 07:22:57;;;;;;;;;31.25;21.50;;;;;4.82;74.35;101903.03;5073715;27;45525;-72
2022/01/06 07:25:22;;;;;;;;;25.75;20.50;;;;;4.89;73.30;101916.25;5076286;28;45386;-72
2022/01/06 07:27:48;;;;;;;;;27.75;18.75;;;;;4.84;72.82;101915.31;5074226;28;45395;-72
2022/01/06 07:30:13;;;;;;;;;17.25;17.25;;;;;4.63;73.94;101884.53;5072908;28;45828;-72
2022/01/06 07:32:43;;;;;;;;;21.00;20.00;;;;;4.84;73.84;101923.19;5073667;27;45557;-72
2022/01/06 07:35:09;;;;;;;;;29.75;19.50;;;;;4.84;73.54;101923.19;5073818;28;45446;-72
2022/01/06 07:37:34;;;;;;;;;26.25;21.50;;;;;4.83;73.45;101931.94;5074289;28;45420;-72
2022/01/06 07:39:59;;;;;;;;;33.75;17.75;;;;;4.84;73.96;101930.19;5073970;27;46035;-72
2022/01/06 07:42:25;;;;;;;;;34.00;24.00;;;;;4.84;72.99;101927.56;5073253;28;45466;-72
2022/01/06 07:44:50;;;;;;;;;26.00;19.75;;;;;4.81;74.34;101933.66;5073239;28;45808;-72
2022/01/06 07:47:16;;;;;;;;;29.50;20.50;;;;;4.79;74.48;101922.25;5074290;28;45702;-72
2022/01/06 07:49:41;;;;;;;;;22.00;16.00;;;;;4.77;73.65;101929.25;5074025;27;46316;-72
2022/01/06 07:52:07;;;;;;;;;25.00;19.00;;;;;4.75;73.42;101938.84;5072999;28;45606;-72
2022/01/06 07:54:32;;;;;;;;;29.00;19.25;;;;;4.65;73.74;101927.41;5074007;28;45413;-72
2022/01/06 07:56:57;;;;;;;;;19.00;14.50;;;;;4.50;73.93;101895.78;5073683;28;45527;-72
2022/01/06 07:59:23;;;;;;;;;24.75;15.00;;;;;4.75;74.76;101928.34;5072911;28;45358;-72
2022/01/06 08:01:48;;;;;;;;;24.50;17.25;;;;;4.74;74.98;101929.22;5073388;28;45480;-72
2022/01/06 08:04:13;;;;;;;;;24.25;15.50;;;;;4.73;73.96;101932.69;5075484;27;45473;-71
2022/01/06 08:06:39;;;;;;;;;17.00;13.75;;;;;4.73;74.84;101938.81;5073292;28;45502;-71
2022/01/06 08:09:04;;;;;;;;;69.67;45.67;;;;;4.80;72.90;101942.41;5073094;28;45446;-71
2022/01/06 08:11:30;;;;;;;;;36.50;21.00;;;;;4.81;74.43;101946.75;5073418;28;45464;-71
2022/01/06 08:13:55;;;;;;;;;17.25;13.75;;;;;4.81;74.17;101944.13;5053010;28;45533;-72
2022/01/06 08:16:20;;;;;;;;;27.50;19.75;;;;;4.80;74.97;101952.88;5075767;27;45410;-71
2022/01/06 08:18:46;;;;;;;;;24.75;19.00;;;;;4.81;75.33;101945.88;5072488;28;45565;-73
2022/01/06 08:21:11;;;;;;;;;24.75;16.75;;;;;4.61;75.03;101914.22;5072640;27;45719;-71
2022/01/06 08:23:36;;;;;;;;;26.25;18.25;;;;;4.59;75.55;101914.25;5073050;28;45628;-72
2022/01/06 08:26:03;;;;;;;;;28.00;18.00;;;;;4.65;74.95;101945.75;5071484;27;45832;-72
2022/01/06 08:28:29;;;;;;;;;21.50;15.25;;;;;4.63;75.32;101937.00;5051861;28;48016;-72
2022/01/06 08:30:54;;;;;;;;;21.25;17.25;;;;;4.54;75.08;101934.28;5078905;27;45328;-71
2022/01/06 08:33:19;;;;;;;;;90.00;65.00;;;;;4.74;74.37;101968.56;5069070;27;45547;-71
2022/01/06 08:35:46;;;;;;;;;84.33;59.67;;;;;4.61;73.86;101943.06;5070503;28;45493;-71
2022/01/06 08:38:11;;;;;;;;;42.33;38.00;;;;;4.74;75.33;101960.69;5060818;28;45578;-72
2022/01/06 08:40:37;;;;;;;;;36.25;26.00;;;;;4.51;75.25;101926.38;5058681;28;45478;-72
2022/01/06 08:43:02;;;;;;;;;20.00;18.50;;;;;4.74;74.97;101965.94;5078713;28;45395;-71
2022/01/06 08:45:28;;;;;;;;;25.50;17.75;;;;;4.54;72.72;101931.66;5064985;28;45265;-74
2022/01/06 08:47:55;;;;;;;;;20.50;18.00;;;;;4.72;74.50;101962.41;5059867;28;46064;-73
2022/01/06 08:50:20;;;;;;;;;29.50;18.00;;;;;4.69;74.87;101951.91;5057750;27;45547;-73
2022/01/06 08:52:46;;;;;;;;;21.00;18.00;;;;;4.81;75.45;101952.00;5053577;28;45527;-73
2022/01/06 08:55:12;;;;;;;;;23.75;18.75;;;;;4.74;74.34;101939.72;5059672;28;45490;-73
2022/01/06 08:57:38;;;;;;;;;24.50;15.25;;;;;4.87;74.08;101962.56;5068776;28;45927;-75
2022/01/06 09:00:10;;;;;;;;;31.25;21.25;;;;;4.89;75.20;101959.97;5051898;28;45495;-74
2022/01/06 09:02:35;;;;;;;;;26.50;16.00;;;;;4.78;74.18;101945.00;5070714;28;46546;-73
2022/01/06 09:05:03;;;;;;;;;20.25;16.00;;;;;4.65;74.76;101916.03;5071872;28;45450;-74
2022/01/06 09:07:28;;;;;;;;;38.50;22.00;;;;;4.88;73.71;101952.94;5069982;28;46214;-75
2022/01/06 09:09:53;;;;;;;;;17.75;14.75;;;;;5.01;74.69;101976.66;5069684;28;45406;-74
2022/01/06 09:12:19;;;;;;;;;27.25;13.00;;;;;4.97;73.87;101968.75;5056800;27;50040;-74
2022/01/06 09:14:45;;;;;;;;;30.00;17.50;;;;;4.98;72.38;101963.53;5067918;28;45467;-74
2022/01/06 09:17:12;;;;;;;;;16.00;11.50;;;;;4.95;72.81;101957.38;5066197;28;47128;-74
2022/01/06 09:19:37;;;;;;;;;25.00;10.75;;;;;5.13;72.83;101983.75;5073061;28;45671;-76
2022/01/06 09:22:03;;;;;;;;;25.50;14.50;;;;;5.11;72.78;101968.88;5058725;28;45531;-73
2022/01/06 09:24:28;;;;;;;;;21.75;15.50;;;;;5.36;73.21;101988.31;5069378;28;45364;-74
2022/01/06 09:26:54;;;;;;;;;19.75;15.75;;;;;5.36;72.25;101976.06;5068203;28;46228;-74
2022/01/06 09:29:20;;;;;;;;;19.50;15.25;;;;;5.52;70.64;101994.53;5042888;28;45419;-73
2022/01/06 09:31:45;;;;;;;;;17.25;12.50;;;;;5.27;71.93;101941.00;5074788;28;45348;-74
2022/01/06 09:34:11;;;;;;;;;19.75;17.25;;;;;5.48;71.46;101970.03;5078409;27;45535;-73
2022/01/06 09:36:41;;;;;;;;;28.50;20.75;;;;;5.44;71.30;101958.63;5075645;27;45518;-74
2022/01/06 09:39:09;;;;;;;;;21.50;18.25;;;;;5.69;72.05;101996.41;5074793;28;45575;-75
2022/01/06 09:41:35;;;;;;;;;31.25;20.00;;;;;5.68;71.46;101985.91;5075421;28;45788;-75
2022/01/06 09:44:01;;;;;;;;;20.00;16.00;;;;;5.82;70.65;101993.84;5075886;27;45547;-75
2022/01/06 09:46:27;;;;;;;;;16.75;13.25;;;;;5.89;70.82;101990.41;5075875;28;46997;-75
2022/01/06 09:48:57;;;;;;;;;17.50;14.00;;;;;6.12;69.55;102016.81;5075878;28;45368;-74
2022/01/06 09:51:23;;;;;;;;;17.00;12.00;;;;;6.30;69.11;102003.75;5076203;28;47284;-74
2022/01/06 09:53:51;;;;;;;;;17.75;14.50;;;;;6.45;69.18;101983.63;5076441;27;45526;-73
2022/01/06 09:56:16;;;;;;;;;29.00;15.00;;;;;6.59;67.97;101953.00;5075643;28;46558;-74
2022/01/06 09:58:42;;;;;;;;;24.75;14.00;;;;;7.17;67.38;101996.88;5075458;28;45410;-73
2022/01/06 10:01:07;;;;;;;;;22.50;14.00;;;;;7.49;66.29;102012.66;5077838;27;45527;-73
2022/01/06 10:03:36;;;;;;;;;20.75;16.00;;;;;7.78;67.53;102009.97;5064561;28;45557;-73
2022/01/06 10:06:28;;;;;;;;;23.00;18.50;;;;;8.11;66.75;102011.63;5075449;27;46079;-73
2022/01/06 10:08:56;;;;;;;;;23.00;15.00;;;;;8.28;65.02;102005.41;5072680;28;45483;-73
2022/01/06 10:11:24;;;;;;;;;16.75;14.00;;;;;8.51;64.35;102011.47;5075694;28;45842;-74
2022/01/06 10:14:05;;;;;;;;;19.75;15.00;;;;;8.65;63.94;102014.06;5075593;28;45408;-74
2022/01/06 10:16:31;;;;;;;;;2.50;0.00;;;;;8.82;63.42;102013.91;5077051;27;47080;-75
2022/01/06 10:19:01;;;;;;;;;23.75;16.50;;;;;8.93;63.54;102012.09;5076296;27;45439;-74
2022/01/06 10:21:57;;;;;;;;;17.75;12.00;;;;;9.00;63.18;101997.06;5065122;28;45427;-75
2022/01/06 10:24:26;;;;;;;;;15.75;12.50;;;;;8.95;63.62;101985.69;5072852;28;45652;-74
2022/01/06 10:27:01;;;;;;;;;15.50;14.50;;;;;9.13;63.03;102004.03;5074845;28;45506;-74
2022/01/06 10:29:29;;;;;;;;;15.00;12.25;;;;;9.08;62.74;101990.84;5074595;28;45542;-75
2022/01/06 10:32:07;;;;;;;;;20.25;14.75;;;;;9.20;63.35;102000.44;5075149;28;45379;-74
2022/01/06 10:34:34;;;;;;;;;16.75;15.00;;;;;9.23;61.82;102012.75;5073248;28;45324;-74
2022/01/06 10:37:06;;;;;;;;;20.75;13.25;;;;;9.20;62.46;102008.34;5074733;28;45604;-73
2022/01/06 10:39:41;;;;;;;;;13.25;10.00;;;;;9.17;62.39;102008.38;5055768;28;46000;-75
2022/01/06 10:42:07;;;;;;;;;21.00;9.75;;;;;9.08;62.01;101989.97;5074470;28;45447;-74
2022/01/06 10:44:33;;;;;;;;;15.50;8.75;;;;;9.18;63.72;102010.16;5074534;28;45559;-74
2022/01/06 10:46:58;;;;;;;;;19.25;11.50;;;;;9.20;62.78;101994.28;5074216;28;46151;-73
2022/01/06 10:49:24;;;;;;;;;8.75;6.00;;;;;9.23;63.82;101994.25;5076649;28;45436;-74
2022/01/06 10:51:50;;;;;;;;;20.25;17.00;;;;;9.18;63.05;101975.81;5061070;28;45318;-74
2022/01/06 10:54:21;;;;;;;;;14.50;12.00;;;;;9.26;61.86;101997.72;5072421;27;45867;-75
2022/01/06 10:57:02;;;;;;;;;21.50;12.00;;;;;9.20;62.51;101984.59;5068954;28;46473;-75
2022/01/06 10:59:33;;;;;;;;;15.50;10.75;;;;;9.22;62.48;101974.88;5062027;28;45562;-75
2022/01/06 11:01:59;;;;;;;;;18.00;11.25;;;;;9.23;63.43;101976.63;5058302;28;45459;-75
2022/01/06 11:04:25;;;;;;;;;18.25;13.50;;;;;9.13;61.60;101959.13;5060999;28;45404;-75
2022/01/06 11:06:50;;;;;;;;;45.25;35.75;;;;;9.12;62.13;101944.19;5070061;27;46192;-75
2022/01/06 11:09:17;;;;;;;;;49.25;40.25;;;;;9.32;62.95;101963.38;5052675;28;45893;-74
2022/01/06 11:12:26;;;;;;;;;20.50;14.25;;;;;9.38;63.12;101958.88;5061315;27;45501;-75
2022/01/06 11:14:29;;;;;;;;;23.75;14.00;;;;;9.40;62.66;101959.75;5072632;28;45673;-74
2022/01/06 11:16:56;;;;;;;;;28.50;14.25;;;;;9.41;61.01;101965.03;5074242;27;46318;-74
2022/01/06 11:19:23;;;;;;;;;17.00;11.50;;;;;9.27;61.44;101928.19;5073258;27;45395;-75
2022/01/06 11:21:49;;;;;;;;;11.00;10.25;;;;;9.47;62.00;101956.16;5070611;27;45394;-74
2022/01/06 11:24:22;;;;;;;;;23.50;12.50;;;;;9.48;61.63;101950.84;5067951;28;45431;-76
2022/01/06 11:27:04;;;;;;;;;15.75;11.00;;;;;9.51;61.72;101952.59;5061288;28;45598;-75
2022/01/06 11:29:32;;;;;;;;;11.00;9.50;;;;;9.50;61.50;101954.38;5068360;28;45433;-75
2022/01/06 11:31:58;;;;;;;;;12.00;9.50;;;;;9.50;61.05;101961.41;5056013;28;45499;-74
2022/01/06 11:34:23;;;;;;;;;18.00;14.25;;;;;9.31;62.61;101910.53;5072244;28;45220;-75
2022/01/06 11:36:52;;;;;;;;;17.50;13.50;;;;;9.55;61.46;101946.38;5083887;27;46757;-75
2022/01/06 11:39:27;;;;;;;;;16.75;11.75;;;;;9.33;61.55;101911.41;5068335;28;45532;-75
2022/01/06 11:41:54;;;;;;;;;11.50;10.00;;;;;9.50;61.39;101938.53;5069107;28;45300;-75
2022/01/06 11:44:22;;;;;;;;;19.75;14.75;;;;;9.48;60.39;101929.72;5070190;28;45403;-75
2022/01/06 11:46:56;;;;;;;;;22.00;16.50;;;;;9.55;60.26;101941.97;5072144;28;45517;-74
2022/01/06 11:49:31;;;;;;;;;10.25;9.25;;;;;9.26;60.28;101891.19;5071418;28;45395;-75
2022/01/06 11:52:15;;;;;;;;;11.25;9.00;;;;;9.51;63.11;101936.75;5073928;27;45529;-75
2022/01/06 11:54:52;;;;;;;;;14.00;10.00;;;;;9.57;60.36;101941.97;5053921;28;45727;-75